Time;durP1;ratioP1;P1;durP2;ratioP2;P2;SDS_P1;SDS_P2;PMS_P1;PMS_P2;Temp;Humidity;BMP_temperature;BMP_pressure;BME280_temperature;BME280_humidity;BME280_pressure;Samples;Min_cycle;Max_cycle;Signal;HPM_P1;HPM_P2
2021/12/11 00:02:32;;;;;;;144.77;35.50;;;;;;;;;;4972437;28;20443;-68
2021/12/11 00:04:58;;;;;;;148.52;35.47;;;;;;;;;;4990137;28;20432;-66
2021/12/11 00:07:27;;;;;;;138.43;32.78;;;;;;;;;;4991232;28;20352;-67
2021/12/11 00:09:56;;;;;;;164.52;37.83;;;;;;;;;;4972731;28;20390;-68
2021/12/11 00:12:28;;;;;;;154.82;35.90;;;;;;;;;;4990135;28;20029;-67
2021/12/11 00:15:06;;;;;;;146.93;35.45;;;;;;;;;;4972316;28;20408;-68
2021/12/11 00:17:33;;;;;;;157.25;36.10;;;;;;;;;;4989865;28;20033;-67
2021/12/11 00:19:59;;;;;;;129.23;32.97;;;;;;;;;;4972776;28;20424;-67
2021/12/11 00:22:28;;;;;;;132.45;32.92;;;;;;;;;;4989679;28;20455;-68
2021/12/11 00:25:05;;;;;;;143.07;32.70;;;;;;;;;;4991126;28;20101;-68
2021/12/11 00:27:32;;;;;;;114.90;30.70;;;;;;;;;;4972966;28;20336;-67
2021/12/11 00:29:57;;;;;;;129.70;33.08;;;;;;;;;;4989491;28;20496;-67
2021/12/11 00:32:29;;;;;;;124.95;30.52;;;;;;;;;;4989590;28;20462;-67
2021/12/11 00:35:12;;;;;;;128.30;34.13;;;;;;;;;;4990218;28;20329;-67
2021/12/11 00:37:37;;;;;;;135.20;32.20;;;;;;;;;;4989224;28;20397;-67
2021/12/11 00:40:10;;;;;;;138.32;32.17;;;;;;;;;;4972100;28;20095;-67
2021/12/11 00:42:38;;;;;;;129.85;31.42;;;;;;;;;;4971754;28;20383;-67
2021/12/11 00:45:18;;;;;;;119.13;34.17;;;;;;;;;;4972214;28;20424;-67
2021/12/11 00:47:48;;;;;;;121.97;31.02;;;;;;;;;;4990153;28;20473;-67
2021/12/11 00:50:15;;;;;;;107.47;29.83;;;;;;;;;;4971083;28;20444;-67
2021/12/11 00:52:44;;;;;;;113.57;29.17;;;;;;;;;;4989168;28;20456;-66
2021/12/11 00:55:38;;;;;;;119.57;28.95;;;;;;;;;;4971767;28;20025;-67
2021/12/11 00:58:07;;;;;;;101.50;28.20;;;;;;;;;;4968812;28;20108;-67
2021/12/11 01:00:38;;;;;;;102.65;28.75;;;;;;;;;;4953499;28;20464;-67
2021/12/11 01:03:04;;;;;;;130.25;31.50;;;;;;;;;;4978374;28;20344;-67
2021/12/11 01:05:36;;;;;;;108.55;27.17;;;;;;;;;;4951626;28;20348;-67
2021/12/11 01:08:15;;;;;;;107.78;27.05;;;;;;;;;;4969491;28;20450;-67
2021/12/11 01:10:40;;;;;;;104.80;29.42;;;;;;;;;;4968994;28;20420;-69
2021/12/11 01:13:06;;;;;;;93.72;26.05;;;;;;;;;;4969228;28;20543;-67
2021/12/11 01:15:40;;;;;;;119.07;28.52;;;;;;;;;;4951410;28;20399;-67
2021/12/11 01:21:08;;;;;;;104.47;29.45;;;;;;;;;;4969444;28;20141;-68
2021/12/11 01:26:13;;;;;;;96.50;23.85;;;;;;;;;;4951372;28;20419;-69
2021/12/11 01:28:38;;;;;;;102.35;28.25;;;;;;;;;;4969123;28;20132;-66
2021/12/11 01:31:07;;;;;;;96.10;28.33;;;;;;;;;;4951239;28;20437;-66
2021/12/11 01:33:33;;;;;;;86.90;26.20;;;;;;;;;;4969768;28;20448;-68
2021/12/11 01:35:58;;;;;;;92.97;26.13;;;;;;;;;;4951467;28;20373;-70
2021/12/11 01:38:26;;;;;;;88.18;25.05;;;;;;;;;;4951731;28;20450;-67
2021/12/11 01:40:55;;;;;;;100.78;25.20;;;;;;;;;;4968959;28;20455;-67
2021/12/11 01:43:23;;;;;;;94.90;27.38;;;;;;;;;;4969197;28;20334;-67
2021/12/11 01:45:50;;;;;;;85.53;24.40;;;;;;;;;;4968056;28;20514;-67
2021/12/11 01:48:23;;;;;;;76.60;21.85;;;;;;;;;;4988038;28;20443;-67
2021/12/11 01:50:52;;;;;;;87.80;25.88;;;;;;;;;;4971777;28;20392;-67
2021/12/11 01:53:27;;;;;;;81.18;21.65;;;;;;;;;;4971174;28;20025;-67
2021/12/11 01:55:55;;;;;;;84.15;23.48;;;;;;;;;;4988680;28;20470;-68
2021/12/11 01:58:28;;;;;;;94.45;24.63;;;;;;;;;;4988834;28;20415;-67
2021/12/11 02:00:58;;;;;;;85.47;23.13;;;;;;;;;;5009218;28;20348;-68
2021/12/11 02:03:28;;;;;;;85.65;22.33;;;;;;;;;;5012456;28;20421;-67
2021/12/11 02:05:53;;;;;;;77.50;24.15;;;;;;;;;;4994684;28;20454;-68
2021/12/11 02:08:35;;;;;;;79.70;21.98;;;;;;;;;;5012397;28;20453;-67
2021/12/11 02:11:10;;;;;;;69.78;21.88;;;;;;;;;;5013233;28;20435;-67
2021/12/11 02:13:44;;;;;;;89.97;24.90;;;;;;;;;;5011847;28;20377;-66
2021/12/11 02:16:16;;;;;;;77.18;23.33;;;;;;;;;;4994601;28;20488;-67
2021/12/11 02:18:45;;;;;;;68.72;20.35;;;;;;;;;;5011875;28;20439;-67
2021/12/11 02:21:25;;;;;;;74.05;21.00;;;;;;;;;;5013307;28;20319;-67
2021/12/11 02:24:03;;;;;;;80.72;20.30;;;;;;;;;;4994630;28;20174;-67
2021/12/11 02:26:29;;;;;;;72.07;20.98;;;;;;;;;;4994248;28;20530;-67
2021/12/11 02:29:05;;;;;;;71.00;20.48;;;;;;;;;;5012441;28;20504;-67
2021/12/11 02:31:37;;;;;;;68.20;21.15;;;;;;;;;;5012039;28;20381;-67
2021/12/11 02:34:34;;;;;;;61.65;20.63;;;;;;;;;;5012178;28;20020;-67
2021/12/11 02:37:14;;;;;;;66.45;19.75;;;;;;;;;;4996067;28;20419;-67
2021/12/11 02:39:48;;;;;;;63.10;20.83;;;;;;;;;;4994232;28;20036;-67
2021/12/11 02:42:31;;;;;;;68.05;20.90;;;;;;;;;;4994278;28;20411;-67
2021/12/11 02:45:11;;;;;;;66.50;21.50;;;;;;;;;;5011305;28;20424;-67
2021/12/11 02:47:43;;;;;;;66.70;21.38;;;;;;;;;;5011127;28;20077;-67
2021/12/11 02:50:13;;;;;;;72.22;20.55;;;;;;;;;;5011880;28;20047;-69
2021/12/11 02:52:44;;;;;;;69.38;19.58;;;;;;;;;;5011915;28;20391;-66
2021/12/11 02:55:32;;;;;;;79.20;21.05;;;;;;;;;;5012435;28;20024;-67
2021/12/11 02:58:02;;;;;;;58.63;16.55;;;;;;;;;;5013207;28;20423;-67
2021/12/11 03:00:39;;;;;;;68.95;19.60;;;;;;;;;;4976919;28;20328;-67
2021/12/11 03:03:08;;;;;;;70.40;19.60;;;;;;;;;;4993450;28;20446;-68
2021/12/11 03:06:00;;;;;;;79.53;19.25;;;;;;;;;;5011838;28;20055;-67
2021/12/11 03:08:25;;;;;;;63.88;18.15;;;;;;;;;;5010752;28;20047;-67
2021/12/11 03:10:55;;;;;;;63.75;18.83;;;;;;;;;;4993343;28;20435;-68
2021/12/11 03:13:21;;;;;;;54.50;16.65;;;;;;;;;;4992518;28;20382;-67
2021/12/11 03:15:46;;;;;;;63.75;18.33;;;;;;;;;;5010757;28;20509;-67
2021/12/11 03:18:12;;;;;;;49.75;16.42;;;;;;;;;;4993502;28;20565;-67
2021/12/11 03:20:38;;;;;;;61.20;17.58;;;;;;;;;;5011384;28;20032;-67
2021/12/11 03:23:04;;;;;;;49.40;18.48;;;;;;;;;;4994198;28;20029;-68
2021/12/11 03:25:30;;;;;;;50.25;17.73;;;;;;;;;;4993512;28;20514;-67
2021/12/11 03:27:57;;;;;;;53.42;16.08;;;;;;;;;;4993159;28;20079;-67
2021/12/11 03:30:26;;;;;;;53.22;16.35;;;;;;;;;;4993247;28;20344;-67
2021/12/11 03:32:55;;;;;;;51.38;16.30;;;;;;;;;;4992415;28;20413;-68
2021/12/11 03:35:21;;;;;;;47.53;15.70;;;;;;;;;;4992808;28;20497;-68
2021/12/11 03:37:47;;;;;;;54.47;17.05;;;;;;;;;;5010794;28;20083;-67
2021/12/11 03:40:13;;;;;;;52.78;16.55;;;;;;;;;;4992802;28;20024;-67
2021/12/11 03:42:40;;;;;;;52.10;15.02;;;;;;;;;;5010498;28;20351;-67
2021/12/11 03:45:16;;;;;;;53.08;18.33;;;;;;;;;;4993643;28;20434;-67
2021/12/11 03:47:47;;;;;;;47.90;16.42;;;;;;;;;;5010486;28;20024;-67
2021/12/11 03:50:15;;;;;;;50.47;15.43;;;;;;;;;;5009832;28;20060;-67
2021/12/11 03:52:43;;;;;;;43.65;15.45;;;;;;;;;;4992850;28;20415;-67
2021/12/11 03:55:15;;;;;;;53.50;16.42;;;;;;;;;;4992647;28;20316;-67
2021/12/11 03:57:43;;;;;;;50.30;16.02;;;;;;;;;;5010394;28;20466;-67
2021/12/11 04:00:16;;;;;;;44.85;14.77;;;;;;;;;;5009828;28;20467;-67
2021/12/11 04:02:44;;;;;;;53.28;16.42;;;;;;;;;;4992046;28;20111;-67
2021/12/11 04:05:09;;;;;;;41.90;14.50;;;;;;;;;;5010843;28;20101;-67
2021/12/11 04:07:45;;;;;;;43.47;16.17;;;;;;;;;;5010134;28;20509;-67
2021/12/11 04:10:13;;;;;;;47.50;15.55;;;;;;;;;;4992342;28;20443;-67
2021/12/11 04:12:39;;;;;;;39.78;14.70;;;;;;;;;;5010021;28;20514;-68
2021/12/11 04:15:06;;;;;;;;;;;;;;;;;;2764999;28;10023041;-67
2021/12/11 04:17:32;;;;;;;47.65;16.05;;;;;;;;;;4528813;28;10000673;-67
2021/12/11 04:20:02;;;;;;;47.50;16.27;;;;;;;;;;5010351;28;20105;-67
2021/12/11 04:22:27;;;;;;;45.45;16.35;;;;;;;;;;5010202;28;20447;-67
2021/12/11 04:24:53;;;;;;;40.00;13.70;;;;;;;;;;5009556;28;20404;-67
2021/12/11 04:27:20;;;;;;;42.60;14.45;;;;;;;;;;4991727;28;20544;-67
2021/12/11 04:29:49;;;;;;;45.00;14.25;;;;;;;;;;5010690;28;20024;-66
2021/12/11 04:32:15;;;;;;;45.72;13.00;;;;;;;;;;4992988;28;20313;-67
2021/12/11 04:34:40;;;;;;;38.83;14.02;;;;;;;;;;4992327;28;20336;-67
2021/12/11 04:37:14;;;;;;;39.40;15.85;;;;;;;;;;5009609;28;20447;-67
2021/12/11 04:39:42;;;;;;;45.90;15.43;;;;;;;;;;5009211;28;20344;-70
2021/12/11 04:42:19;;;;;;;44.17;14.00;;;;;;;;;;5009298;28;20453;-67
2021/12/11 04:44:47;;;;;;;41.97;15.00;;;;;;;;;;4993121;28;20485;-67
2021/12/11 04:47:33;;;;;;;38.33;14.43;;;;;;;;;;5009246;28;20355;-67
2021/12/11 04:50:04;;;;;;;42.88;16.08;;;;;;;;;;5009460;28;20485;-67
2021/12/11 04:52:40;;;;;;;35.80;13.60;;;;;;;;;;5009715;28;20485;-67
2021/12/11 04:55:43;;;;;;;37.13;14.88;;;;;;;;;;5009557;28;20454;-67
2021/12/11 05:00:59;;;;;;;39.00;14.55;;;;;;;;;;5010167;28;20395;-67
2021/12/11 05:11:02;;;;;;;42.58;14.55;;;;;;;;;;5009146;28;20316;-67
2021/12/11 05:13:29;;;;;;;33.58;12.68;;;;;;;;;;5008912;28;20051;-67
2021/12/11 05:15:57;;;;;;;40.10;12.45;;;;;;;;;;4991182;28;20339;-67
2021/12/11 05:18:24;;;;;;;37.85;14.25;;;;;;;;;;4990769;28;20312;-66
2021/12/11 05:20:54;;;;;;;42.03;13.50;;;;;;;;;;4991538;28;20363;-67
2021/12/11 05:23:19;;;;;;;;;;;;;;;;;;4991549;28;20451;-67
2021/12/11 05:25:46;;;;;;;33.38;12.23;;;;;;;;;;5008784;28;20287;-66
2021/12/11 05:28:11;;;;;;;38.25;13.32;;;;;;;;;;5008895;28;20339;-67
2021/12/11 05:30:40;;;;;;;30.75;11.95;;;;;;;;;;5009339;28;20340;-68
2021/12/11 05:33:05;;;;;;;37.20;14.60;;;;;;;;;;4990951;28;20439;-67
2021/12/11 05:35:35;;;;;;;35.47;13.85;;;;;;;;;;4991079;28;20447;-67
2021/12/11 05:38:02;;;;;;;32.60;12.60;;;;;;;;;;4995109;28;20024;-67
2021/12/11 05:40:29;;;;;;;28.02;12.35;;;;;;;;;;4995614;28;20323;-67
2021/12/11 05:42:56;;;;;;;35.75;12.82;;;;;;;;;;5013051;28;20108;-66
2021/12/11 05:45:22;;;;;;;33.28;12.05;;;;;;;;;;4995231;28;20347;-67
2021/12/11 05:47:47;;;;;;;38.08;12.68;;;;;;;;;;4994703;28;20320;-67
2021/12/11 05:50:21;;;;;;;31.92;13.73;;;;;;;;;;4994915;28;20051;-67
2021/12/11 05:52:48;;;;;;;42.55;12.65;;;;;;;;;;5012532;28;20463;-67
2021/12/11 05:55:17;;;;;;;30.45;12.20;;;;;;;;;;5012766;28;20522;-67
2021/12/11 05:57:50;;;;;;;31.58;11.82;;;;;;;;;;4995986;28;20409;-67
2021/12/11 06:00:17;;;;;;;41.10;12.65;;;;;;;;;;4995005;28;20063;-67
2021/12/11 06:02:43;;;;;;;37.05;13.25;;;;;;;;;;4995176;28;20056;-67
2021/12/11 06:05:08;;;;;;;36.50;14.20;;;;;;;;;;4994219;28;20428;-67
2021/12/11 06:07:34;;;;;;;34.90;12.57;;;;;;;;;;4995531;28;20431;-67
2021/12/11 06:10:08;;;;;;;30.17;12.20;;;;;;;;;;4994088;28;20411;-67
2021/12/11 06:12:34;;;;;;;39.15;14.73;;;;;;;;;;4994465;28;20435;-69
2021/12/11 06:15:00;;;;;;;32.13;13.32;;;;;;;;;;4994414;28;20415;-67
2021/12/11 06:17:29;;;;;;;34.15;12.20;;;;;;;;;;4994482;28;20359;-67
2021/12/11 06:19:56;;;;;;;34.75;12.52;;;;;;;;;;4994411;28;20523;-67
2021/12/11 06:22:34;;;;;;;38.63;11.90;;;;;;;;;;4993898;28;20317;-67
2021/12/11 06:25:04;;;;;;;34.90;13.40;;;;;;;;;;5012317;28;20371;-67
2021/12/11 06:27:30;;;;;;;29.35;11.88;;;;;;;;;;5011436;28;20506;-67
2021/12/11 06:29:55;;;;;;;31.77;11.57;;;;;;;;;;5012685;28;20324;-68
2021/12/11 06:32:22;;;;;;;27.80;11.75;;;;;;;;;;5011517;28;20442;-67
2021/12/11 06:34:48;;;;;;;30.27;12.80;;;;;;;;;;4994484;28;20483;-67
2021/12/11 06:37:15;;;;;;;35.38;13.05;;;;;;;;;;5012248;28;20332;-67
2021/12/11 06:39:41;;;;;;;30.88;12.10;;;;;;;;;;5012323;28;20426;-67
2021/12/11 06:42:09;;;;;;;34.75;11.80;;;;;;;;;;5012371;28;21204;-66
2021/12/11 06:44:36;;;;;;;30.05;11.77;;;;;;;;;;5012382;28;20408;-68
2021/12/11 06:47:06;;;;;;;28.42;12.13;;;;;;;;;;4976470;28;20339;-67
2021/12/11 06:49:33;;;;;;;29.90;10.77;;;;;;;;;;4993940;28;20390;-67
2021/12/11 06:52:00;;;;;;;32.25;12.50;;;;;;;;;;4993193;28;20032;-68
2021/12/11 06:54:25;;;;;;;34.25;12.02;;;;;;;;;;5011130;28;20122;-67
2021/12/11 06:56:52;;;;;;;28.83;13.20;;;;;;;;;;4993428;28;20028;-67
2021/12/11 06:59:17;;;;;;;36.83;13.52;;;;;;;;;;4993514;28;20076;-67
2021/12/11 07:01:43;;;;;;;33.00;12.23;;;;;;;;;;4993058;28;20541;-67
2021/12/11 07:04:11;;;;;;;37.78;12.90;;;;;;;;;;4993588;28;20508;-67
2021/12/11 07:06:39;;;;;;;32.63;12.55;;;;;;;;;;5011416;28;20417;-67
2021/12/11 07:09:06;;;;;;;34.85;12.43;;;;;;;;;;4994287;28;20370;-67
2021/12/11 07:11:33;;;;;;;26.23;12.18;;;;;;;;;;5011398;28;20305;-67
2021/12/11 07:13:58;;;;;;;30.95;11.45;;;;;;;;;;4993441;28;20425;-67
2021/12/11 07:16:24;;;;;;;28.52;12.00;;;;;;;;;;5011279;28;20075;-67
2021/12/11 07:18:50;;;;;;;30.45;10.80;;;;;;;;;;4993534;28;20025;-68
2021/12/11 07:21:15;;;;;;;28.95;12.80;;;;;;;;;;4993481;28;20415;-66
2021/12/11 07:23:45;;;;;;;33.78;12.75;;;;;;;;;;4993010;28;20362;-67
2021/12/11 07:26:16;;;;;;;28.77;11.82;;;;;;;;;;5010834;28;20355;-67
2021/12/11 07:28:45;;;;;;;35.92;14.23;;;;;;;;;;4993264;28;20420;-66
2021/12/11 07:31:11;;;;;;;;;;;;;;;;;;4993414;28;20409;-69
2021/12/11 07:33:37;;;;;;;33.25;11.82;;;;;;;;;;5012454;28;20011;-67
2021/12/11 07:36:03;;;;;;;32.88;12.05;;;;;;;;;;5010528;28;20315;-67
2021/12/11 07:38:29;;;;;;;37.33;13.48;;;;;;;;;;5010854;28;20387;-67
2021/12/11 07:40:59;;;;;;;34.15;13.35;;;;;;;;;;4992677;28;20029;-67
2021/12/11 07:43:26;;;;;;;30.27;12.13;;;;;;;;;;5010533;28;20583;-67
2021/12/11 07:45:52;;;;;;;39.13;14.55;;;;;;;;;;4992340;28;20455;-67
2021/12/11 07:48:18;;;;;;;29.58;12.10;;;;;;;;;;4992684;28;20363;-67
2021/12/11 07:50:43;;;;;;;34.85;14.15;;;;;;;;;;4993029;28;20056;-66
2021/12/11 07:53:09;;;;;;;27.98;13.57;;;;;;;;;;5010351;28;20409;-67
2021/12/11 07:55:35;;;;;;;34.55;13.00;;;;;;;;;;5010582;28;20405;-68
2021/12/11 07:58:02;;;;;;;30.90;13.05;;;;;;;;;;4993563;28;20471;-67
2021/12/11 08:00:28;;;;;;;33.25;12.02;;;;;;;;;;4992149;28;20333;-66
2021/12/11 08:02:54;;;;;;;30.20;13.95;;;;;;;;;;5010069;28;20435;-67
2021/12/11 08:05:20;;;;;;;29.05;12.20;;;;;;;;;;5012230;28;20369;-67
2021/12/11 08:07:45;;;;;;;31.88;13.27;;;;;;;;;;4992210;28;20028;-67
2021/12/11 08:10:17;;;;;;;28.27;13.27;;;;;;;;;;4992288;28;20521;-67
2021/12/11 08:12:43;;;;;;;31.63;13.82;;;;;;;;;;4976828;28;20345;-67
2021/12/11 08:15:10;;;;;;;30.35;13.75;;;;;;;;;;4992234;28;20414;-67
2021/12/11 08:17:35;;;;;;;25.23;11.68;;;;;;;;;;5009881;28;20048;-67
2021/12/11 08:20:00;;;;;;;29.40;12.93;;;;;;;;;;5011844;28;20028;-67
2021/12/11 08:22:26;;;;;;;30.70;12.45;;;;;;;;;;5009701;28;20432;-67
2021/12/11 08:24:51;;;;;;;29.70;12.98;;;;;;;;;;5011129;28;20329;-67
2021/12/11 08:27:19;;;;;;;24.88;11.45;;;;;;;;;;4992373;28;20536;-67
2021/12/11 08:29:48;;;;;;;34.80;13.43;;;;;;;;;;4991639;28;20024;-67
2021/12/11 08:32:14;;;;;;;38.08;15.75;;;;;;;;;;4992249;28;20477;-67
2021/12/11 08:34:40;;;;;;;36.13;15.15;;;;;;;;;;4991592;28;20427;-67
2021/12/11 08:37:08;;;;;;;33.05;14.27;;;;;;;;;;4991836;28;20374;-67
2021/12/11 08:39:34;;;;;;;32.03;13.15;;;;;;;;;;4991591;28;20411;-67
2021/12/11 08:42:02;;;;;;;34.08;16.08;;;;;;;;;;5009877;28;20363;-67
2021/12/11 08:44:29;;;;;;;31.88;14.18;;;;;;;;;;4991970;28;20057;-67
2021/12/11 08:46:59;;;;;;;34.47;15.75;;;;;;;;;;4991979;28;20343;-70
2021/12/11 08:49:28;;;;;;;35.17;14.30;;;;;;;;;;4991627;28;20553;-67
2021/12/11 08:51:57;;;;;;;34.90;15.80;;;;;;;;;;5009926;28;20405;-67
2021/12/11 08:54:26;;;;;;;34.95;14.65;;;;;;;;;;5009644;28;20431;-67
2021/12/11 08:56:51;;;;;;;33.00;15.23;;;;;;;;;;4991363;28;20514;-67
2021/12/11 08:59:19;;;;;;;30.10;13.40;;;;;;;;;;4991043;28;20400;-67
2021/12/11 09:02:11;;;;;;;32.35;16.10;;;;;;;;;;5008277;28;20489;-67
2021/12/11 09:04:53;;;;;;;53.70;20.60;;;;;;;;;;5009120;28;20434;-68
2021/12/11 09:07:32;;;;;;;45.97;20.48;;;;;;;;;;4991456;28;20028;-67
2021/12/11 09:10:23;;;;;;;50.92;21.67;;;;;;;;;;4994949;28;20526;-67
2021/12/11 09:12:56;;;;;;;49.15;22.30;;;;;;;;;;4961175;28;20154;-66
2021/12/11 09:15:37;;;;;;;55.17;22.40;;;;;;;;;;4985702;28;20382;-66
2021/12/11 09:18:07;;;;;;;49.60;22.52;;;;;;;;;;4968441;28;20439;-68
2021/12/11 09:20:48;;;;;;;61.35;27.58;;;;;;;;;;4990317;28;20360;-66
2021/12/11 09:23:24;;;;;;;59.40;25.85;;;;;;;;;;4988733;28;20425;-67
2021/12/11 09:25:53;;;;;;;62.58;28.27;;;;;;;;;;4971533;28;20428;-66
2021/12/11 09:28:27;;;;;;;64.20;30.17;;;;;;;;;;4970710;28;20562;-65
2021/12/11 09:31:10;;;;;;;76.03;31.95;;;;;;;;;;4971690;28;20411;-66
2021/12/11 09:33:45;;;;;;;92.40;39.83;;;;;;;;;;4971598;28;20458;-67
2021/12/11 09:36:25;;;;;;;87.40;40.85;;;;;;;;;;4988576;28;20098;-66
2021/12/11 09:38:55;;;;;;;100.90;41.92;;;;;;;;;;4988953;28;20048;-66
2021/12/11 09:41:26;;;;;;;96.43;46.50;;;;;;;;;;4990642;28;20409;-66
2021/12/11 09:44:00;;;;;;;100.43;46.17;;;;;;;;;;4988609;28;20428;-66
2021/12/11 09:46:36;;;;;;;97.60;43.33;;;;;;;;;;4970945;28;20122;-66
2021/12/11 09:49:04;;;;;;;95.55;44.75;;;;;;;;;;4970054;28;20328;-66
2021/12/11 09:51:36;;;;;;;98.32;42.80;;;;;;;;;;4970636;28;20463;-66
2021/12/11 09:54:07;;;;;;;107.63;43.90;;;;;;;;;;4988633;28;20324;-66
2021/12/11 09:56:39;;;;;;;104.78;44.83;;;;;;;;;;4968916;28;20455;-66
2021/12/11 09:59:09;;;;;;;96.95;42.95;;;;;;;;;;4974252;28;20041;-69
2021/12/11 10:01:39;;;;;;;106.18;46.03;;;;;;;;;;4986700;28;20053;-68
2021/12/11 10:04:10;;;;;;;106.68;43.75;;;;;;;;;;4989734;28;20289;-65
2021/12/11 10:09:18;;;;;;;108.97;45.00;;;;;;;;;;4988773;28;20310;-66
2021/12/11 10:12:07;;;;;;;95.22;42.72;;;;;;;;;;4988702;28;20425;-66
2021/12/11 10:14:37;;;;;;;101.43;41.08;;;;;;;;;;4987088;28;20455;-66
2021/12/11 10:17:11;;;;;;;110.18;41.72;;;;;;;;;;4988426;28;20352;-66
2021/12/11 10:19:38;;;;;;;89.10;39.95;;;;;;;;;;4971000;28;20428;-66
2021/12/11 10:22:12;;;;;;;116.55;40.47;;;;;;;;;;4970772;28;20397;-66
2021/12/11 10:24:39;;;;;;;101.35;40.42;;;;;;;;;;4991862;28;20051;-66
2021/12/11 10:27:09;;;;;;;105.18;42.22;;;;;;;;;;4991934;28;20047;-68
2021/12/11 10:29:35;;;;;;;93.93;38.85;;;;;;;;;;4992270;28;20509;-66
2021/12/11 10:32:06;;;;;;;101.50;39.65;;;;;;;;;;4992448;28;20339;-70
2021/12/11 10:34:32;;;;;;;91.40;39.92;;;;;;;;;;4991634;28;20021;-66
2021/12/11 10:37:10;;;;;;;86.00;39.97;;;;;;;;;;4974057;28;20432;-66
2021/12/11 10:39:37;;;;;;;85.75;40.13;;;;;;;;;;4991711;28;20458;-65
2021/12/11 10:42:05;;;;;;;82.95;37.40;;;;;;;;;;4992664;28;20440;-66
2021/12/11 10:44:34;;;;;;;102.90;42.17;;;;;;;;;;4993258;28;20447;-68
2021/12/11 10:47:09;;;;;;;93.05;42.70;;;;;;;;;;4991945;28;20481;-66
2021/12/11 10:49:35;;;;;;;126.18;47.17;;;;;;;;;;4991887;28;20359;-66
2021/12/11 10:52:09;;;;;;;113.72;45.60;;;;;;;;;;4973583;28;20403;-66
2021/12/11 10:54:35;;;;;;;103.75;43.72;;;;;;;;;;4992067;28;20359;-66
2021/12/11 10:57:00;;;;;;;115.43;43.83;;;;;;;;;;4991648;28;20359;-65
2021/12/11 10:59:30;;;;;;;108.50;43.80;;;;;;;;;;4992240;28;20462;-66
2021/12/11 11:02:03;;;;;;;111.10;46.78;;;;;;;;;;4989769;28;20047;-66
2021/12/11 11:04:34;;;;;;;90.80;41.05;;;;;;;;;;4992854;28;20399;-66
2021/12/11 11:07:01;;;;;;;96.95;44.00;;;;;;;;;;4991097;28;20369;-66
2021/12/11 11:09:28;;;;;;;99.32;43.83;;;;;;;;;;4990095;28;20557;-66
2021/12/11 11:11:57;;;;;;;105.68;45.00;;;;;;;;;;4990124;28;20426;-68
2021/12/11 11:14:23;;;;;;;90.78;42.28;;;;;;;;;;4991470;28;20394;-66
2021/12/11 11:16:52;;;;;;;94.15;41.65;;;;;;;;;;4990810;28;20450;-66
2021/12/11 11:19:20;;;;;;;98.28;41.47;;;;;;;;;;4991467;28;20428;-66
2021/12/11 11:21:47;;;;;;;89.03;43.15;;;;;;;;;;4973194;28;20432;-67
2021/12/11 11:24:14;;;;;;;93.28;43.70;;;;;;;;;;4973429;28;20112;-66
2021/12/11 11:26:43;;;;;;;88.50;41.72;;;;;;;;;;4989655;28;20355;-65
2021/12/11 11:29:12;;;;;;;89.65;41.35;;;;;;;;;;4991271;28;20052;-67
2021/12/11 11:31:38;;;;;;;82.13;37.60;;;;;;;;;;4990946;28;20021;-66
2021/12/11 11:34:06;;;;;;;87.60;37.88;;;;;;;;;;4990770;28;20336;-65
2021/12/11 11:36:33;;;;;;;94.82;40.45;;;;;;;;;;4991519;28;20413;-65
2021/12/11 11:39:01;;;;;;;97.63;41.00;;;;;;;;;;4991166;28;20436;-66
2021/12/11 11:41:33;;;;;;;76.10;34.85;;;;;;;;;;4992074;28;20029;-65
2021/12/11 11:43:59;;;;;;;78.25;36.03;;;;;;;;;;4990648;28;20041;-66
2021/12/11 11:46:25;;;;;;;81.38;35.58;;;;;;;;;;4993246;28;20428;-65
2021/12/11 11:48:54;;;;;;;85.38;34.60;;;;;;;;;;4990907;28;20462;-66
2021/12/11 11:51:30;;;;;;;79.18;35.10;;;;;;;;;;4972537;28;20324;-66
2021/12/11 11:53:56;;;;;;;70.82;32.75;;;;;;;;;;4990351;28;20428;-66
2021/12/11 11:56:25;;;;;;;74.28;35.58;;;;;;;;;;4972622;28;20449;-66
2021/12/11 11:58:52;;;;;;;68.05;33.63;;;;;;;;;;4988777;28;20491;-66
2021/12/11 12:01:22;;;;;;;69.22;34.13;;;;;;;;;;4991390;28;20451;-65
2021/12/11 12:03:49;;;;;;;74.68;34.65;;;;;;;;;;4991015;28;20043;-66
2021/12/11 12:06:22;;;;;;;79.57;34.38;;;;;;;;;;4990345;28;20451;-66
2021/12/11 12:08:48;;;;;;;77.45;33.42;;;;;;;;;;4973992;28;20426;-65
2021/12/11 12:11:14;;;;;;;62.78;31.52;;;;;;;;;;4989972;28;20112;-66
2021/12/11 12:13:40;;;;;;;69.43;31.52;;;;;;;;;;4972300;28;20406;-65
2021/12/11 12:16:10;;;;;;;70.05;30.35;;;;;;;;;;4988872;28;20317;-66
2021/12/11 12:18:36;;;;;;;69.68;31.38;;;;;;;;;;4988575;28;20416;-65
2021/12/11 12:21:04;;;;;;;66.65;29.20;;;;;;;;;;4988964;28;20372;-65
2021/12/11 12:23:32;;;;;;;58.20;27.35;;;;;;;;;;4989384;28;20401;-66
2021/12/11 12:26:07;;;;;;;60.42;29.77;;;;;;;;;;4988682;28;20325;-66
2021/12/11 12:28:33;;;;;;;66.55;30.67;;;;;;;;;;4988848;28;20443;-66
2021/12/11 12:31:15;;;;;;;67.00;28.35;;;;;;;;;;4989048;28;20514;-66
2021/12/11 12:33:43;;;;;;;75.57;30.60;;;;;;;;;;4988748;28;20028;-66
2021/12/11 12:36:08;;;;;;;57.45;27.58;;;;;;;;;;4989645;28;20055;-65
2021/12/11 12:38:34;;;;;;;62.22;29.05;;;;;;;;;;4989942;28;20024;-66
2021/12/11 12:41:07;;;;;;;59.20;26.35;;;;;;;;;;4989404;28;20040;-65
2021/12/11 12:44:22;;;;;;;64.43;30.65;;;;;;;;;;4990272;28;20025;-66
2021/12/11 12:46:33;;;;;;;64.03;29.13;;;;;;;;;;4980916;28;20114;-69
2021/12/11 12:48:59;;;;;;;74.72;31.70;;;;;;;;;;4990475;28;20387;-66
2021/12/11 12:51:25;;;;;;;61.20;28.83;;;;;;;;;;4988003;28;20060;-65
2021/12/11 12:53:51;;;;;;;58.55;28.25;;;;;;;;;;4988197;28;20021;-66
2021/12/11 12:56:39;;;;;;;57.97;26.98;;;;;;;;;;4988724;28;20459;-66
2021/12/11 12:59:19;;;;;;;65.93;28.10;;;;;;;;;;4988823;28;20463;-67
2021/12/11 13:02:11;;;;;;;65.13;27.65;;;;;;;;;;4972535;28;20476;-67
2021/12/11 13:04:41;;;;;;;68.75;29.20;;;;;;;;;;4988547;28;20331;-66
2021/12/11 13:07:12;;;;;;;69.20;29.15;;;;;;;;;;4989568;28;20392;-66
2021/12/11 13:09:55;;;;;;;64.65;28.02;;;;;;;;;;4989637;28;20407;-65
2021/12/11 13:12:23;;;;;;;60.90;25.80;;;;;;;;;;4990545;28;20336;-65
2021/12/11 13:14:49;;;;;;;62.25;26.85;;;;;;;;;;4989072;28;20412;-66
2021/12/11 13:17:23;;;;;;;52.35;25.40;;;;;;;;;;4989855;28;20429;-66
2021/12/11 13:19:52;;;;;;;63.58;26.02;;;;;;;;;;4989358;28;20301;-65
2021/12/11 13:22:30;;;;;;;57.40;25.13;;;;;;;;;;4988886;28;20344;-66
2021/12/11 13:25:00;;;;;;;52.25;25.77;;;;;;;;;;4971319;28;20412;-65
2021/12/11 13:27:27;;;;;;;58.20;23.05;;;;;;;;;;4971182;28;20029;-66
2021/12/11 13:29:56;;;;;;;55.55;26.00;;;;;;;;;;4989851;28;20439;-66
2021/12/11 13:32:30;;;;;;;55.72;23.80;;;;;;;;;;4989095;28;20352;-65
2021/12/11 13:34:59;;;;;;;56.70;25.25;;;;;;;;;;4988818;28;20422;-66
2021/12/11 13:37:27;;;;;;;52.17;22.55;;;;;;;;;;4971232;28;20432;-66
2021/12/11 13:39:53;;;;;;;50.92;23.58;;;;;;;;;;4971311;28;20409;-66
2021/12/11 13:42:25;;;;;;;55.67;23.98;;;;;;;;;;4987623;28;20351;-65
2021/12/11 13:44:53;;;;;;;56.85;23.33;;;;;;;;;;4987380;28;20340;-66
2021/12/11 13:47:21;;;;;;;49.20;23.48;;;;;;;;;;4988977;28;20405;-66
2021/12/11 13:49:48;;;;;;;50.00;23.13;;;;;;;;;;4971273;28;20452;-66
2021/12/11 13:52:13;;;;;;;51.38;22.08;;;;;;;;;;4989315;28;20432;-66
2021/12/11 13:54:39;;;;;;;53.20;23.70;;;;;;;;;;4971917;28;20424;-66
2021/12/11 13:57:09;;;;;;;49.05;23.15;;;;;;;;;;4989483;28;20353;-65
2021/12/11 13:59:35;;;;;;;51.42;23.10;;;;;;;;;;4992659;28;21137;-66
2021/12/11 14:02:01;;;;;;;49.92;23.05;;;;;;;;;;4991034;28;20432;-66
2021/12/11 14:04:28;;;;;;;45.03;23.45;;;;;;;;;;4993663;28;20340;-65
2021/12/11 14:07:09;;;;;;;59.85;23.50;;;;;;;;;;4991272;28;20439;-66
2021/12/11 14:09:36;;;;;;;45.92;22.17;;;;;;;;;;4993508;28;20420;-66
2021/12/11 14:12:02;;;;;;;47.50;22.20;;;;;;;;;;4991142;28;20466;-66
2021/12/11 14:14:27;;;;;;;48.20;21.27;;;;;;;;;;4992199;28;20542;-66
2021/12/11 14:16:53;;;;;;;48.92;21.23;;;;;;;;;;4992538;28;20451;-66
2021/12/11 14:19:19;;;;;;;47.63;21.17;;;;;;;;;;4992090;28;20408;-66
2021/12/11 14:21:44;;;;;;;52.72;23.40;;;;;;;;;;4974610;28;20021;-65
2021/12/11 14:24:10;;;;;;;50.10;21.77;;;;;;;;;;4973950;28;20422;-66
2021/12/11 14:26:37;;;;;;;45.72;22.27;;;;;;;;;;4992568;28;20382;-65
2021/12/11 14:29:04;;;;;;;63.63;24.45;;;;;;;;;;4992858;28;20343;-65
2021/12/11 14:31:30;;;;;;;51.45;24.42;;;;;;;;;;4973941;28;20340;-65
2021/12/11 14:33:57;;;;;;;60.17;25.17;;;;;;;;;;4994063;28;20446;-66
2021/12/11 14:36:25;;;;;;;60.70;24.98;;;;;;;;;;4992494;28;20459;-66
2021/12/11 14:38:52;;;;;;;60.03;26.75;;;;;;;;;;4990485;28;20343;-66
2021/12/11 14:41:21;;;;;;;65.18;25.75;;;;;;;;;;4991810;28;20123;-67
2021/12/11 14:43:47;;;;;;;72.43;25.73;;;;;;;;;;4957898;28;20470;-65
2021/12/11 14:46:13;;;;;;;70.70;27.58;;;;;;;;;;4990499;28;20528;-66
2021/12/11 14:48:39;;;;;;;68.28;27.48;;;;;;;;;;4974836;28;20329;-65
2021/12/11 14:51:13;;;;;;;66.00;28.13;;;;;;;;;;4992876;28;20343;-66